sensor_id;sensor_type;location;lat;lon;timestamp;temperature;humidity
67799;SHT30;54596;43.216;27.904;2023-04-03T00:01:38;10.77;82.98
67799;SHT30;54596;43.216;27.904;2023-04-03T00:04:04;10.72;82.84
67799;SHT30;54596;43.216;27.904;2023-04-03T00:06:32;10.69;82.75
67799;SHT30;54596;43.216;27.904;2023-04-03T00:08:58;10.72;82.75
67799;SHT30;54596;43.216;27.904;2023-04-03T00:11:23;10.67;82.71
67799;SHT30;54596;43.216;27.904;2023-04-03T00:13:49;10.66;82.70
67799;SHT30;54596;43.216;27.904;2023-04-03T00:16:15;10.65;82.66
67799;SHT30;54596;43.216;27.904;2023-04-03T00:18:41;10.65;82.55
67799;SHT30;54596;43.216;27.904;2023-04-03T00:21:07;10.65;82.49
67799;SHT30;54596;43.216;27.904;2023-04-03T00:23:32;10.65;82.63
67799;SHT30;54596;43.216;27.904;2023-04-03T00:25:59;10.62;82.48
67799;SHT30;54596;43.216;27.904;2023-04-03T00:28:25;10.62;82.20
67799;SHT30;54596;43.216;27.904;2023-04-03T00:30:52;10.58;82.06
67799;SHT30;54596;43.216;27.904;2023-04-03T00:33:18;10.53;81.99
67799;SHT30;54596;43.216;27.904;2023-04-03T00:35:47;10.52;81.94
67799;SHT30;54596;43.216;27.904;2023-04-03T00:38:13;10.49;81.99
67799;SHT30;54596;43.216;27.904;2023-04-03T00:40:42;10.46;82.00
67799;SHT30;54596;43.216;27.904;2023-04-03T00:43:14;10.44;82.08
67799;SHT30;54596;43.216;27.904;2023-04-03T00:45:42;10.41;82.30
67799;SHT30;54596;43.216;27.904;2023-04-03T00:48:12;10.37;82.34
67799;SHT30;54596;43.216;27.904;2023-04-03T00:50:41;10.37;82.46
67799;SHT30;54596;43.216;27.904;2023-04-03T00:53:11;10.34;82.36
67799;SHT30;54596;43.216;27.904;2023-04-03T00:55:38;10.32;82.26
67799;SHT30;54596;43.216;27.904;2023-04-03T00:58:05;10.31;82.23
67799;SHT30;54596;43.216;27.904;2023-04-03T01:00:32;10.27;82.33
67799;SHT30;54596;43.216;27.904;2023-04-03T01:02:59;10.22;82.45
67799;SHT30;54596;43.216;27.904;2023-04-03T01:05:25;10.18;82.56
67799;SHT30;54596;43.216;27.904;2023-04-03T01:07:51;10.18;82.62
67799;SHT30;54596;43.216;27.904;2023-04-03T01:10:17;10.18;82.62
67799;SHT30;54596;43.216;27.904;2023-04-03T01:12:45;10.18;82.77
67799;SHT30;54596;43.216;27.904;2023-04-03T01:15:21;10.17;82.84
67799;SHT30;54596;43.216;27.904;2023-04-03T01:17:55;10.10;82.80
67799;SHT30;54596;43.216;27.904;2023-04-03T01:25:50;10.07;82.74
67799;SHT30;54596;43.216;27.904;2023-04-03T01:28:19;10.04;82.83
67799;SHT30;54596;43.216;27.904;2023-04-03T01:33:32;9.98;82.71
67799;SHT30;54596;43.216;27.904;2023-04-03T01:35:58;9.94;82.71
67799;SHT30;54596;43.216;27.904;2023-04-03T01:38:25;9.93;82.70
67799;SHT30;54596;43.216;27.904;2023-04-03T01:40:50;9.86;82.71
67799;SHT30;54596;43.216;27.904;2023-04-03T01:43:16;9.85;82.78
67799;SHT30;54596;43.216;27.904;2023-04-03T01:45:42;9.85;82.80
67799;SHT30;54596;43.216;27.904;2023-04-03T01:48:07;9.83;82.94
67799;SHT30;54596;43.216;27.904;2023-04-03T01:50:33;9.83;83.15
67799;SHT30;54596;43.216;27.904;2023-04-03T01:52:59;9.78;83.50
67799;SHT30;54596;43.216;27.904;2023-04-03T01:55:25;9.69;83.82
67799;SHT30;54596;43.216;27.904;2023-04-03T01:57:50;9.59;84.26
67799;SHT30;54596;43.216;27.904;2023-04-03T02:00:16;9.55;84.38
67799;SHT30;54596;43.216;27.904;2023-04-03T02:02:41;9.52;84.42
67799;SHT30;54596;43.216;27.904;2023-04-03T02:05:07;9.53;84.27
67799;SHT30;54596;43.216;27.904;2023-04-03T02:07:33;9.51;84.40
67799;SHT30;54596;43.216;27.904;2023-04-03T02:09:58;9.51;84.41
67799;SHT30;54596;43.216;27.904;2023-04-03T02:12:24;9.52;84.11
67799;SHT30;54596;43.216;27.904;2023-04-03T02:14:50;9.52;83.82
67799;SHT30;54596;43.216;27.904;2023-04-03T02:17:15;9.49;83.65
67799;SHT30;54596;43.216;27.904;2023-04-03T02:19:40;9.46;83.74
67799;SHT30;54596;43.216;27.904;2023-04-03T02:22:07;9.46;83.76
67799;SHT30;54596;43.216;27.904;2023-04-03T02:24:33;9.46;84.07
67799;SHT30;54596;43.216;27.904;2023-04-03T02:26:59;9.41;84.59
67799;SHT30;54596;43.216;27.904;2023-04-03T02:29:24;9.44;84.73
67799;SHT30;54596;43.216;27.904;2023-04-03T02:31:50;9.42;84.80
67799;SHT30;54596;43.216;27.904;2023-04-03T02:34:16;9.46;84.96
67799;SHT30;54596;43.216;27.904;2023-04-03T02:36:41;9.49;85.16
67799;SHT30;54596;43.216;27.904;2023-04-03T02:39:07;9.51;85.13
67799;SHT30;54596;43.216;27.904;2023-04-03T02:41:33;9.55;85.07
67799;SHT30;54596;43.216;27.904;2023-04-03T02:44:04;9.51;85.16
67799;SHT30;54596;43.216;27.904;2023-04-03T02:46:30;9.52;85.26
67799;SHT30;54596;43.216;27.904;2023-04-03T02:48:55;9.53;85.33
67799;SHT30;54596;43.216;27.904;2023-04-03T02:51:21;9.56;85.29
67799;SHT30;54596;43.216;27.904;2023-04-03T02:53:46;9.59;85.19
67799;SHT30;54596;43.216;27.904;2023-04-03T02:56:12;9.65;84.97
67799;SHT30;54596;43.216;27.904;2023-04-03T02:58:37;9.72;84.80
67799;SHT30;54596;43.216;27.904;2023-04-03T03:01:03;9.69;84.64
67799;SHT30;54596;43.216;27.904;2023-04-03T03:03:28;9.66;84.73
67799;SHT30;54596;43.216;27.904;2023-04-03T03:06:15;9.63;84.73
67799;SHT30;54596;43.216;27.904;2023-04-03T03:08:41;9.79;84.60
67799;SHT30;54596;43.216;27.904;2023-04-03T03:11:09;9.82;84.10
67799;SHT30;54596;43.216;27.904;2023-04-03T03:13:35;9.79;84.17
67799;SHT30;54596;43.216;27.904;2023-04-03T03:16:01;9.76;84.08
67799;SHT30;54596;43.216;27.904;2023-04-03T03:18:27;9.79;84.21
67799;SHT30;54596;43.216;27.904;2023-04-03T03:20:57;9.79;84.08
67799;SHT30;54596;43.216;27.904;2023-04-03T03:23:24;9.75;84.75
67799;SHT30;54596;43.216;27.904;2023-04-03T03:26:27;9.68;84.09
67799;SHT30;54596;43.216;27.904;2023-04-03T03:28:46;9.63;84.66
67799;SHT30;54596;43.216;27.904;2023-04-03T03:31:11;9.45;84.95
67799;SHT30;54596;43.216;27.904;2023-04-03T03:33:37;9.36;85.25
67799;SHT30;54596;43.216;27.904;2023-04-03T03:36:03;9.32;84.96
67799;SHT30;54596;43.216;27.904;2023-04-03T03:38:28;9.32;84.77
67799;SHT30;54596;43.216;27.904;2023-04-03T03:40:54;9.24;85.21
67799;SHT30;54596;43.216;27.904;2023-04-03T03:43:19;9.20;84.84
67799;SHT30;54596;43.216;27.904;2023-04-03T03:45:49;9.20;84.83
67799;SHT30;54596;43.216;27.904;2023-04-03T03:48:16;9.20;84.58
67799;SHT30;54596;43.216;27.904;2023-04-03T03:50:43;9.14;84.69
67799;SHT30;54596;43.216;27.904;2023-04-03T03:53:09;9.16;84.70
67799;SHT30;54596;43.216;27.904;2023-04-03T03:55:34;9.18;84.40
67799;SHT30;54596;43.216;27.904;2023-04-03T03:58:00;9.13;84.34
67799;SHT30;54596;43.216;27.904;2023-04-03T04:00:26;9.16;84.22
67799;SHT30;54596;43.216;27.904;2023-04-03T04:02:53;9.17;83.82
67799;SHT30;54596;43.216;27.904;2023-04-03T04:05:18;9.10;84.31
67799;SHT30;54596;43.216;27.904;2023-04-03T04:07:46;9.10;84.33
67799;SHT30;54596;43.216;27.904;2023-04-03T04:10:11;9.18;83.95
67799;SHT30;54596;43.216;27.904;2023-04-03T04:12:39;9.18;83.85
67799;SHT30;54596;43.216;27.904;2023-04-03T04:15:04;9.24;83.69
67799;SHT30;54596;43.216;27.904;2023-04-03T04:17:30;9.30;83.46
67799;SHT30;54596;43.216;27.904;2023-04-03T04:19:57;9.30;83.53
67799;SHT30;54596;43.216;27.904;2023-04-03T04:22:25;9.35;83.38
67799;SHT30;54596;43.216;27.904;2023-04-03T04:24:54;9.41;83.13
67799;SHT30;54596;43.216;27.904;2023-04-03T04:27:20;9.48;82.82
67799;SHT30;54596;43.216;27.904;2023-04-03T04:29:47;9.55;82.61
67799;SHT30;54596;43.216;27.904;2023-04-03T04:32:13;9.68;82.13
67799;SHT30;54596;43.216;27.904;2023-04-03T04:34:38;9.83;81.75
67799;SHT30;54596;43.216;27.904;2023-04-03T04:37:04;9.91;81.21
67799;SHT30;54596;43.216;27.904;2023-04-03T04:39:29;10.00;80.83
67799;SHT30;54596;43.216;27.904;2023-04-03T04:41:55;10.10;80.71
67799;SHT30;54596;43.216;27.904;2023-04-03T04:44:20;10.13;80.56
67799;SHT30;54596;43.216;27.904;2023-04-03T04:46:46;10.18;80.46
67799;SHT30;54596;43.216;27.904;2023-04-03T04:49:11;10.34;79.98
67799;SHT30;54596;43.216;27.904;2023-04-03T04:51:37;10.49;79.73
67799;SHT30;54596;43.216;27.904;2023-04-03T04:54:02;10.58;79.17
67799;SHT30;54596;43.216;27.904;2023-04-03T04:56:28;10.72;78.83
67799;SHT30;54596;43.216;27.904;2023-04-03T04:58:53;10.77;78.76
67799;SHT30;54596;43.216;27.904;2023-04-03T05:01:19;10.86;78.49
67799;SHT30;54596;43.216;27.904;2023-04-03T05:03:45;10.99;78.16
67799;SHT30;54596;43.216;27.904;2023-04-03T05:06:11;11.10;78.08
67799;SHT30;54596;43.216;27.904;2023-04-03T05:08:36;11.27;77.30
67799;SHT30;54596;43.216;27.904;2023-04-03T05:11:02;11.32;77.15
67799;SHT30;54596;43.216;27.904;2023-04-03T05:13:27;11.38;77.23
67799;SHT30;54596;43.216;27.904;2023-04-03T05:15:55;11.48;77.15
67799;SHT30;54596;43.216;27.904;2023-04-03T05:18:21;11.51;77.18
67799;SHT30;54596;43.216;27.904;2023-04-03T05:20:49;11.55;77.91
67799;SHT30;54596;43.216;27.904;2023-04-03T05:23:16;11.55;78.51
67799;SHT30;54596;43.216;27.904;2023-04-03T05:25:42;11.61;78.46
67799;SHT30;54596;43.216;27.904;2023-04-03T05:28:09;11.58;78.80
67799;SHT30;54596;43.216;27.904;2023-04-03T05:30:35;11.67;78.94
67799;SHT30;54596;43.216;27.904;2023-04-03T05:33:00;11.74;78.64
67799;SHT30;54596;43.216;27.904;2023-04-03T05:35:26;11.79;78.78
67799;SHT30;54596;43.216;27.904;2023-04-03T05:37:51;11.73;78.84
67799;SHT30;54596;43.216;27.904;2023-04-03T05:40:17;11.86;78.54
67799;SHT30;54596;43.216;27.904;2023-04-03T05:42:46;11.93;78.05
67799;SHT30;54596;43.216;27.904;2023-04-03T05:45:12;12.15;76.89
67799;SHT30;54596;43.216;27.904;2023-04-03T05:47:38;12.52;76.42
67799;SHT30;54596;43.216;27.904;2023-04-03T05:50:03;13.04;75.05
67799;SHT30;54596;43.216;27.904;2023-04-03T05:52:33;14.04;72.37
67799;SHT30;54596;43.216;27.904;2023-04-03T05:55:00;15.32;69.12
67799;SHT30;54596;43.216;27.904;2023-04-03T05:57:26;16.42;65.04
67799;SHT30;54596;43.216;27.904;2023-04-03T05:59:51;17.55;63.04
67799;SHT30;54596;43.216;27.904;2023-04-03T06:02:19;18.58;60.13
67799;SHT30;54596;43.216;27.904;2023-04-03T06:04:45;19.22;58.35
67799;SHT30;54596;43.216;27.904;2023-04-03T06:07:13;19.65;57.37
67799;SHT30;54596;43.216;27.904;2023-04-03T06:09:39;20.36;55.77
67799;SHT30;54596;43.216;27.904;2023-04-03T06:12:05;20.95;53.31
67799;SHT30;54596;43.216;27.904;2023-04-03T06:14:31;21.55;52.86
67799;SHT30;54596;43.216;27.904;2023-04-03T06:16:56;22.00;51.47
67799;SHT30;54596;43.216;27.904;2023-04-03T06:19:22;22.02;51.58
67799;SHT30;54596;43.216;27.904;2023-04-03T06:21:47;22.67;50.41
67799;SHT30;54596;43.216;27.904;2023-04-03T06:24:16;23.05;49.81
67799;SHT30;54596;43.216;27.904;2023-04-03T06:26:42;23.20;49.89
67799;SHT30;54596;43.216;27.904;2023-04-03T06:29:08;23.79;48.45
67799;SHT30;54596;43.216;27.904;2023-04-03T06:31:35;24.09;47.23
67799;SHT30;54596;43.216;27.904;2023-04-03T06:34:02;24.44;47.06
67799;SHT30;54596;43.216;27.904;2023-04-03T06:36:28;24.78;46.65
67799;SHT30;54596;43.216;27.904;2023-04-03T06:38:54;24.53;46.07
67799;SHT30;54596;43.216;27.904;2023-04-03T06:41:20;24.30;47.66
67799;SHT30;54596;43.216;27.904;2023-04-03T06:43:46;24.68;46.36
67799;SHT30;54596;43.216;27.904;2023-04-03T06:46:16;25.45;45.18
67799;SHT30;54596;43.216;27.904;2023-04-03T06:48:43;25.85;45.25
67799;SHT30;54596;43.216;27.904;2023-04-03T06:51:20;25.93;44.46
67799;SHT30;54596;43.216;27.904;2023-04-03T06:53:50;24.89;46.18
67799;SHT30;54596;43.216;27.904;2023-04-03T06:56:16;25.57;44.80
67799;SHT30;54596;43.216;27.904;2023-04-03T06:58:42;25.30;45.19
67799;SHT30;54596;43.216;27.904;2023-04-03T07:01:10;25.23;45.55
67799;SHT30;54596;43.216;27.904;2023-04-03T07:03:36;24.69;45.68
67799;SHT30;54596;43.216;27.904;2023-04-03T07:06:03;24.60;45.71
67799;SHT30;54596;43.216;27.904;2023-04-03T07:08:29;23.92;46.41
67799;SHT30;54596;43.216;27.904;2023-04-03T07:10:55;24.20;46.80
67799;SHT30;54596;43.216;27.904;2023-04-03T07:13:22;23.09;47.98
67799;SHT30;54596;43.216;27.904;2023-04-03T07:15:48;22.60;49.49
67799;SHT30;54596;43.216;27.904;2023-04-03T07:18:14;22.89;49.18
67799;SHT30;54596;43.216;27.904;2023-04-03T07:20:39;22.78;49.13
67799;SHT30;54596;43.216;27.904;2023-04-03T07:23:05;22.26;49.72
67799;SHT30;54596;43.216;27.904;2023-04-03T07:25:31;21.98;50.73
67799;SHT30;54596;43.216;27.904;2023-04-03T07:27:57;21.77;51.32
67799;SHT30;54596;43.216;27.904;2023-04-03T07:30:23;21.89;51.71
67799;SHT30;54596;43.216;27.904;2023-04-03T07:32:48;22.08;51.46
67799;SHT30;54596;43.216;27.904;2023-04-03T07:35:14;22.61;50.54
67799;SHT30;54596;43.216;27.904;2023-04-03T07:37:39;23.82;49.71
67799;SHT30;54596;43.216;27.904;2023-04-03T07:40:06;24.54;47.09
67799;SHT30;54596;43.216;27.904;2023-04-03T07:42:32;23.78;47.46
67799;SHT30;54596;43.216;27.904;2023-04-03T07:44:57;23.55;48.12
67799;SHT30;54596;43.216;27.904;2023-04-03T07:47:23;23.16;49.08
67799;SHT30;54596;43.216;27.904;2023-04-03T07:49:48;23.00;49.58
67799;SHT30;54596;43.216;27.904;2023-04-03T07:52:14;22.65;50.15
67799;SHT30;54596;43.216;27.904;2023-04-03T07:54:41;22.19;50.78
67799;SHT30;54596;43.216;27.904;2023-04-03T07:57:07;21.50;52.11
67799;SHT30;54596;43.216;27.904;2023-04-03T07:59:32;20.85;53.99
67799;SHT30;54596;43.216;27.904;2023-04-03T08:01:58;20.75;53.83
67799;SHT30;54596;43.216;27.904;2023-04-03T08:04:23;20.63;53.53
67799;SHT30;54596;43.216;27.904;2023-04-03T08:06:50;20.75;53.03
67799;SHT30;54596;43.216;27.904;2023-04-03T08:09:16;20.22;53.93
67799;SHT30;54596;43.216;27.904;2023-04-03T08:11:42;20.96;52.90
67799;SHT30;54596;43.216;27.904;2023-04-03T08:14:08;20.84;52.29
67799;SHT30;54596;43.216;27.904;2023-04-03T08:16:36;20.25;53.88
67799;SHT30;54596;43.216;27.904;2023-04-03T08:19:01;20.00;54.71
67799;SHT30;54596;43.216;27.904;2023-04-03T08:21:27;19.12;56.59
67799;SHT30;54596;43.216;27.904;2023-04-03T08:23:52;18.69;57.80
67799;SHT30;54596;43.216;27.904;2023-04-03T08:26:20;19.13;57.20
67799;SHT30;54596;43.216;27.904;2023-04-03T08:28:47;19.22;56.75
67799;SHT30;54596;43.216;27.904;2023-04-03T08:31:16;19.15;56.93
67799;SHT30;54596;43.216;27.904;2023-04-03T08:33:42;19.74;55.96
67799;SHT30;54596;43.216;27.904;2023-04-03T08:36:17;19.47;56.34
67799;SHT30;54596;43.216;27.904;2023-04-03T08:38:43;19.26;56.97
67799;SHT30;54596;43.216;27.904;2023-04-03T08:49:56;18.56;58.93
67799;SHT30;54596;43.216;27.904;2023-04-03T08:52:50;18.13;60.08
67799;SHT30;54596;43.216;27.904;2023-04-03T08:57:46;17.60;62.53
67799;SHT30;54596;43.216;27.904;2023-04-03T09:02:56;17.77;62.68
67799;SHT30;54596;43.216;27.904;2023-04-03T09:08:29;17.25;64.71
67799;SHT30;54596;43.216;27.904;2023-04-03T09:11:25;17.25;64.95
67799;SHT30;54596;43.216;27.904;2023-04-03T09:16:59;17.07;65.42
67799;SHT30;54596;43.216;27.904;2023-04-03T09:22:11;16.74;66.25
67799;SHT30;54596;43.216;27.904;2023-04-03T09:24:38;16.71;66.61
67799;SHT30;54596;43.216;27.904;2023-04-03T09:27:06;16.56;67.65
67799;SHT30;54596;43.216;27.904;2023-04-03T09:29:38;16.52;68.48
67799;SHT30;54596;43.216;27.904;2023-04-03T09:34:45;16.67;68.59
67799;SHT30;54596;43.216;27.904;2023-04-03T09:40:02;16.60;69.10
67799;SHT30;54596;43.216;27.904;2023-04-03T09:42:30;16.47;69.76
67799;SHT30;54596;43.216;27.904;2023-04-03T09:45:04;16.05;70.58
67799;SHT30;54596;43.216;27.904;2023-04-03T09:47:33;15.66;71.60
67799;SHT30;54596;43.216;27.904;2023-04-03T09:52:39;15.42;72.14
67799;SHT30;54596;43.216;27.904;2023-04-03T09:55:07;15.56;72.04
67799;SHT30;54596;43.216;27.904;2023-04-03T09:57:34;15.64;71.12
67799;SHT30;54596;43.216;27.904;2023-04-03T10:00:01;15.35;71.96
67799;SHT30;54596;43.216;27.904;2023-04-03T10:02:36;15.09;72.52
67799;SHT30;54596;43.216;27.904;2023-04-03T10:05:51;14.98;73.24
67799;SHT30;54596;43.216;27.904;2023-04-03T10:07:51;14.94;73.39
67799;SHT30;54596;43.216;27.904;2023-04-03T10:10:21;14.98;73.38
67799;SHT30;54596;43.216;27.904;2023-04-03T10:13:05;15.05;73.11
67799;SHT30;54596;43.216;27.904;2023-04-03T10:15:38;15.16;72.91
67799;SHT30;54596;43.216;27.904;2023-04-03T10:24:51;15.01;72.06
67799;SHT30;54596;43.216;27.904;2023-04-03T10:27:22;14.92;72.52
67799;SHT30;54596;43.216;27.904;2023-04-03T10:30:04;14.91;72.41
67799;SHT30;54596;43.216;27.904;2023-04-03T10:40:47;15.47;69.96
67799;SHT30;54596;43.216;27.904;2023-04-03T10:44:07;15.39;69.97
67799;SHT30;54596;43.216;27.904;2023-04-03T10:54:13;15.81;68.98
67799;SHT30;54596;43.216;27.904;2023-04-03T10:57:31;15.68;69.31
67799;SHT30;54596;43.216;27.904;2023-04-03T10:59:41;15.66;69.13
67799;SHT30;54596;43.216;27.904;2023-04-03T11:04:39;15.54;69.68
67799;SHT30;54596;43.216;27.904;2023-04-03T11:07:15;15.56;69.86
67799;SHT30;54596;43.216;27.904;2023-04-03T11:09:45;15.50;69.87
67799;SHT30;54596;43.216;27.904;2023-04-03T11:12:33;15.50;69.66
67799;SHT30;54596;43.216;27.904;2023-04-03T11:15:02;15.46;69.85
67799;SHT30;54596;43.216;27.904;2023-04-03T11:17:59;15.15;70.20
67799;SHT30;54596;43.216;27.904;2023-04-03T11:20:30;14.83;71.01
67799;SHT30;54596;43.216;27.904;2023-04-03T11:23:03;14.67;71.58
67799;SHT30;54596;43.216;27.904;2023-04-03T11:25:34;14.63;71.62
67799;SHT30;54596;43.216;27.904;2023-04-03T11:28:02;14.83;71.12
67799;SHT30;54596;43.216;27.904;2023-04-03T11:34:15;14.77;71.08
67799;SHT30;54596;43.216;27.904;2023-04-03T11:36:47;14.88;71.11
67799;SHT30;54596;43.216;27.904;2023-04-03T11:39:28;14.85;70.64
67799;SHT30;54596;43.216;27.904;2023-04-03T11:41:54;14.85;70.97
67799;SHT30;54596;43.216;27.904;2023-04-03T11:44:33;14.92;70.95
67799;SHT30;54596;43.216;27.904;2023-04-03T11:47:00;14.91;70.86
67799;SHT30;54596;43.216;27.904;2023-04-03T12:00:59;15.18;69.72
67799;SHT30;54596;43.216;27.904;2023-04-03T12:16:33;14.57;72.21
67799;SHT30;54596;43.216;27.904;2023-04-03T12:24:46;14.08;73.64
67799;SHT30;54596;43.216;27.904;2023-04-03T12:30:06;13.98;74.69
67799;SHT30;54596;43.216;27.904;2023-04-03T12:32:46;14.00;75.05
67799;SHT30;54596;43.216;27.904;2023-04-03T12:38:25;13.88;75.98
67799;SHT30;54596;43.216;27.904;2023-04-03T12:46:10;13.87;75.69
67799;SHT30;54596;43.216;27.904;2023-04-03T12:48:55;13.93;75.21
67799;SHT30;54596;43.216;27.904;2023-04-03T12:51:39;13.98;74.79
67799;SHT30;54596;43.216;27.904;2023-04-03T12:54:35;14.02;73.96
67799;SHT30;54596;43.216;27.904;2023-04-03T12:57:10;14.14;73.55
67799;SHT30;54596;43.216;27.904;2023-04-03T12:59:37;14.18;73.15
67799;SHT30;54596;43.216;27.904;2023-04-03T13:02:15;14.36;72.83
67799;SHT30;54596;43.216;27.904;2023-04-03T13:04:43;14.24;72.79
67799;SHT30;54596;43.216;27.904;2023-04-03T13:07:37;14.22;72.86
67799;SHT30;54596;43.216;27.904;2023-04-03T13:12:53;13.97;74.58
67799;SHT30;54596;43.216;27.904;2023-04-03T13:15:27;13.77;75.13
67799;SHT30;54596;43.216;27.904;2023-04-03T13:17:53;13.65;75.74
67799;SHT30;54596;43.216;27.904;2023-04-03T13:20:29;13.53;76.07
67799;SHT30;54596;43.216;27.904;2023-04-03T13:23:04;13.43;76.51
67799;SHT30;54596;43.216;27.904;2023-04-03T13:25:33;13.35;76.13
67799;SHT30;54596;43.216;27.904;2023-04-03T13:28:01;13.10;77.16
67799;SHT30;54596;43.216;27.904;2023-04-03T13:30:28;13.08;77.43
67799;SHT30;54596;43.216;27.904;2023-04-03T13:32:56;13.12;77.23
67799;SHT30;54596;43.216;27.904;2023-04-03T13:35:27;13.12;76.51
67799;SHT30;54596;43.216;27.904;2023-04-03T13:37:57;13.18;76.11
67799;SHT30;54596;43.216;27.904;2023-04-03T13:40:23;13.29;75.80
67799;SHT30;54596;43.216;27.904;2023-04-03T13:43:04;13.28;75.83
67799;SHT30;54596;43.216;27.904;2023-04-03T13:45:31;13.28;75.57
67799;SHT30;54596;43.216;27.904;2023-04-03T13:48:18;13.46;75.42
67799;SHT30;54596;43.216;27.904;2023-04-03T13:53:43;13.49;75.54
67799;SHT30;54596;43.216;27.904;2023-04-03T13:58:56;13.32;76.82
67799;SHT30;54596;43.216;27.904;2023-04-03T14:01:24;13.14;77.32
67799;SHT30;54596;43.216;27.904;2023-04-03T14:03:56;13.00;77.63
67799;SHT30;54596;43.216;27.904;2023-04-03T14:06:22;12.91;78.13
67799;SHT30;54596;43.216;27.904;2023-04-03T14:08:48;12.97;77.62
67799;SHT30;54596;43.216;27.904;2023-04-03T14:11:17;12.98;77.86
67799;SHT30;54596;43.216;27.904;2023-04-03T14:13:44;12.91;77.78
67799;SHT30;54596;43.216;27.904;2023-04-03T14:16:20;12.63;78.74
67799;SHT30;54596;43.216;27.904;2023-04-03T14:18:48;12.52;79.27
67799;SHT30;54596;43.216;27.904;2023-04-03T14:21:16;12.69;78.94
67799;SHT30;54596;43.216;27.904;2023-04-03T14:23:42;12.79;78.39
67799;SHT30;54596;43.216;27.904;2023-04-03T14:26:19;12.67;78.71
67799;SHT30;54596;43.216;27.904;2023-04-03T14:28:47;12.57;79.22
67799;SHT30;54596;43.216;27.904;2023-04-03T14:31:15;12.57;79.87
67799;SHT30;54596;43.216;27.904;2023-04-03T14:33:41;12.38;79.91
67799;SHT30;54596;43.216;27.904;2023-04-03T14:36:20;12.46;79.68
67799;SHT30;54596;43.216;27.904;2023-04-03T14:38:47;12.39;79.81
67799;SHT30;54596;43.216;27.904;2023-04-03T14:41:15;12.32;80.06
67799;SHT30;54596;43.216;27.904;2023-04-03T14:43:41;12.32;80.16
67799;SHT30;54596;43.216;27.904;2023-04-03T14:46:47;12.28;80.07
67799;SHT30;54596;43.216;27.904;2023-04-03T14:49:19;12.21;80.23
67799;SHT30;54596;43.216;27.904;2023-04-03T14:51:46;12.28;80.12
67799;SHT30;54596;43.216;27.904;2023-04-03T14:54:19;12.29;80.07
67799;SHT30;54596;43.216;27.904;2023-04-03T14:56:47;12.29;79.65
67799;SHT30;54596;43.216;27.904;2023-04-03T14:59:13;12.41;79.72
67799;SHT30;54596;43.216;27.904;2023-04-03T15:01:39;12.42;79.33
67799;SHT30;54596;43.216;27.904;2023-04-03T15:04:11;12.48;78.97
67799;SHT30;54596;43.216;27.904;2023-04-03T15:06:37;12.46;79.19
67799;SHT30;54596;43.216;27.904;2023-04-03T15:09:02;12.55;78.57
67799;SHT30;54596;43.216;27.904;2023-04-03T15:11:28;12.48;78.48
67799;SHT30;54596;43.216;27.904;2023-04-03T15:13:56;12.49;78.24
67799;SHT30;54596;43.216;27.904;2023-04-03T15:16:22;12.45;78.26
67799;SHT30;54596;43.216;27.904;2023-04-03T15:18:49;12.53;78.17
67799;SHT30;54596;43.216;27.904;2023-04-03T15:21:18;12.55;78.39
67799;SHT30;54596;43.216;27.904;2023-04-03T15:23:52;12.56;78.21
67799;SHT30;54596;43.216;27.904;2023-04-03T15:26:19;12.59;77.92
67799;SHT30;54596;43.216;27.904;2023-04-03T15:28:55;12.62;78.34
67799;SHT30;54596;43.216;27.904;2023-04-03T15:31:21;12.67;78.10
67799;SHT30;54596;43.216;27.904;2023-04-03T15:33:47;12.60;78.20
67799;SHT30;54596;43.216;27.904;2023-04-03T15:36:13;12.64;78.04
67799;SHT30;54596;43.216;27.904;2023-04-03T15:38:42;12.69;78.02
67799;SHT30;54596;43.216;27.904;2023-04-03T15:41:08;12.73;77.90
67799;SHT30;54596;43.216;27.904;2023-04-03T15:43:36;12.66;78.32
67799;SHT30;54596;43.216;27.904;2023-04-03T15:46:02;12.62;78.25
67799;SHT30;54596;43.216;27.904;2023-04-03T15:48:28;12.64;78.36
67799;SHT30;54596;43.216;27.904;2023-04-03T15:50:55;12.66;78.28
67799;SHT30;54596;43.216;27.904;2023-04-03T15:53:21;12.52;78.31
67799;SHT30;54596;43.216;27.904;2023-04-03T15:55:47;12.59;78.20
67799;SHT30;54596;43.216;27.904;2023-04-03T15:58:12;12.63;78.05
67799;SHT30;54596;43.216;27.904;2023-04-03T16:00:39;12.63;77.98
67799;SHT30;54596;43.216;27.904;2023-04-03T16:03:09;12.64;78.00
67799;SHT30;54596;43.216;27.904;2023-04-03T16:05:36;12.66;78.22
67799;SHT30;54596;43.216;27.904;2023-04-03T16:08:03;12.64;78.47
67799;SHT30;54596;43.216;27.904;2023-04-03T16:10:29;12.56;78.98
67799;SHT30;54596;43.216;27.904;2023-04-03T16:12:55;12.56;79.19
67799;SHT30;54596;43.216;27.904;2023-04-03T16:15:21;12.52;79.47
67799;SHT30;54596;43.216;27.904;2023-04-03T16:17:46;12.48;79.17
67799;SHT30;54596;43.216;27.904;2023-04-03T16:20:14;12.45;79.15
67799;SHT30;54596;43.216;27.904;2023-04-03T16:22:40;12.49;79.20
67799;SHT30;54596;43.216;27.904;2023-04-03T16:25:08;12.52;79.07
67799;SHT30;54596;43.216;27.904;2023-04-03T16:27:35;12.50;79.27
67799;SHT30;54596;43.216;27.904;2023-04-03T16:30:00;12.43;79.65
67799;SHT30;54596;43.216;27.904;2023-04-03T16:32:28;12.42;79.77
67799;SHT30;54596;43.216;27.904;2023-04-03T16:34:54;12.42;79.75
67799;SHT30;54596;43.216;27.904;2023-04-03T16:37:21;12.39;79.95
67799;SHT30;54596;43.216;27.904;2023-04-03T16:39:46;12.41;80.04
67799;SHT30;54596;43.216;27.904;2023-04-03T16:42:12;12.50;80.05
67799;SHT30;54596;43.216;27.904;2023-04-03T16:44:39;12.48;79.59
67799;SHT30;54596;43.216;27.904;2023-04-03T16:47:06;12.52;79.75
67799;SHT30;54596;43.216;27.904;2023-04-03T16:49:33;12.49;79.77
67799;SHT30;54596;43.216;27.904;2023-04-03T16:52:00;12.45;79.91
67799;SHT30;54596;43.216;27.904;2023-04-03T16:54:27;12.42;80.20
67799;SHT30;54596;43.216;27.904;2023-04-03T16:56:53;12.36;80.28
67799;SHT30;54596;43.216;27.904;2023-04-03T16:59:19;12.39;80.21
67799;SHT30;54596;43.216;27.904;2023-04-03T17:01:46;12.42;80.26
67799;SHT30;54596;43.216;27.904;2023-04-03T17:04:13;12.36;80.05
67799;SHT30;54596;43.216;27.904;2023-04-03T17:06:40;12.32;79.91
67799;SHT30;54596;43.216;27.904;2023-04-03T17:09:06;12.34;79.91
67799;SHT30;54596;43.216;27.904;2023-04-03T17:11:33;12.39;79.82
67799;SHT30;54596;43.216;27.904;2023-04-03T17:13:59;12.36;79.75
67799;SHT30;54596;43.216;27.904;2023-04-03T17:16:25;12.25;79.86
67799;SHT30;54596;43.216;27.904;2023-04-03T17:18:52;12.22;80.19
67799;SHT30;54596;43.216;27.904;2023-04-03T17:21:19;12.17;80.35
67799;SHT30;54596;43.216;27.904;2023-04-03T17:23:49;12.11;80.56
67799;SHT30;54596;43.216;27.904;2023-04-03T17:26:18;12.13;80.90